Lone Grove, OK (73443)

8:40 PM CDT on April 27, 2017 (GMT -0500)
Carter County Dist 3 | | Change Station

Elev 927 ft 34.17 °N, 97.28 °W | Updated 46 seconds ago

Partly Cloudy
Partly Cloudy
66.7 °F
Feels Like 66.7 °F
N
11.0
Wind Variable Wind from ESE
Gusts 18.0 mph

Today
High -- | Low -- °F
--% Chance of Precip.
Yesterday
High -- | Low -- °F
Precip. -- in
Pressure 29.58 in
Visibility 10.0 miles
Clouds Clear
Dew Point 53 °F
Humidity 62%
Rainfall 0.00 in
Snow Depth Not available.
6:43 AM 8:10 PM
Waxing Crescent, 4% visible
METAR K1F0 280115Z AUTO 16007KT 10SM CLR 18/08 A2958 RMK AO2
Pressure 29.58 in
Visibility 10.0 miles
Clouds Clear
Dew Point 53 °F
Humidity 62%
Rainfall 0.00 in
Snow Depth Not available.
6:43 AM 8:10 PM
Waxing Crescent, 4% visible
METAR K1F0 280115Z AUTO 16007KT 10SM CLR 18/08 A2958 RMK AO2

Get Severe Weather Alerts

Thanks for signing up!

Be on the lookout for a verification email in your inbox.

You'll start receiving the daily forecast at 8 AM.

×

10-Day Weather Forecast

Almanac

Astronomy

Apr. 27, 2017 Rise Set
Actual Time
Civil Twilight
Nautical Twilight
Astronomical Twilight
Moon
Length of Visible Light
Length of Day
Tomorrow will be .
, % of the Moon is Illuminated

Today's Extremes

State Highs State Lows

Community

WunderPhotos

WunderBlog® & News

Nearby

Air Quality

  Air Quality AQ Index Pollutant
Not available.

Snow Depth

Station Depth Elevation

Earthquake Activity

City Distance Mag. Time & Date
Minimum magnitude displayed is 2.5.

Coastal Water Temperatures

Place Temperature

Stations

Nearby Weather Stations

Station Location Temp. Windchill Dew Point Humidity Wind Precip. Elev Updated Type
                   

Watches & Warnings

There are currently no watches in effect.